Peary Spirit — C6YM3 — position and weather

sailwx.info

Track history (hours):
 
Tides and Currents Weather Stations Pressure Air Temp Water Temp Dewpoint Dewpoint Depression Visibility Wind Speed Wind Dir Waves Ship Positions

Peary Spirit

Last reported at 2014-Oct-22 22:33 UTC. Time now 2014-Oct-24 08:41 UTC.
Position N 55°13' E 006°30'.

Length 249 m; draft 9.5 m.

Type: Tanker. MMSI: 311027600.

Date/timePositionNaut miles runAvg speedWind from/ knotsBaromVisibWave heightAir tempDewpointWater temp
2014-Oct-22 22:33N 55°13' E 006°30'1111.2
2014-Oct-22 21:33N 55°03' E 006°37'1110.6
2014-Oct-22 20:33N 54°53' E 006°45'1010.1
2014-Oct-22 19:33N 54°45' E 006°54'1010.0
2014-Oct-22 18:33N 54°36' E 007°03'9 8.8
2014-Oct-22 17:33N 54°29' E 007°10'8 8.4
2014-Oct-22 16:33N 54°22' E 007°18'9 8.6
2014-Oct-22 15:33N 54°14' E 007°25'7 7.3
2014-Oct-22 14:33N 54°07' E 007°25'2 1.7
2014-Oct-22 13:33N 54°05' E 007°24'0 0.1
2014-Oct-22 12:33N 54°05' E 007°25'0 0.4
2014-Oct-22 11:33N 54°05' E 007°25'1 0.5
2014-Oct-22 10:33N 54°06' E 007°26'0 0.4
2014-Oct-22 09:33N 54°06' E 007°26'0 0.3
2014-Oct-22 08:33N 54°06' E 007°27'0 0.2
2014-Oct-22 07:33N 54°06' E 007°27'8 0.5
2014-Oct-21 15:33N 54°01' E 007°38'1212.0
2014-Oct-21 14:33N 53°51' E 007°50'1413.6
2014-Oct-21 13:33N 53°41' E 008°05'8 7.9
2014-Oct-21 12:32N 53°33' E 008°10'0 0.0
2014-Oct-21 11:32N 53°33' E 008°10'0 0.0
2014-Oct-21 10:32N 53°33' E 008°10'0 0.0
2014-Oct-21 09:32N 53°33' E 008°10'0 0.0
2014-Oct-21 08:32N 53°33' E 008°10'0 0.0
2014-Oct-21 07:32N 53°33' E 008°10'0 0.0
2014-Oct-21 06:32N 53°33' E 008°10'0 0.0
2014-Oct-21 05:32N 53°33' E 008°10'0 0.0
2014-Oct-21 04:32N 53°33' E 008°10'0 0.0
2014-Oct-21 03:32N 53°33' E 008°10'0 0.0
2014-Oct-21 02:32N 53°33' E 008°10'0 0.0
2014-Oct-21 01:32N 53°33' E 008°10'0 0.0
2014-Oct-21 00:32N 53°33' E 008°10'0 0.0
2014-Oct-20 23:32N 53°33' E 008°10'0 0.0
2014-Oct-20 22:29N 53°33' E 008°10'0 0.0
2014-Oct-20 21:32N 53°33' E 008°10'0 0.0
2014-Oct-20 20:32N 53°33' E 008°10'0 0.0
2014-Oct-20 19:32N 53°33' E 008°10'0 0.0
2014-Oct-20 18:32N 53°33' E 008°10'0 0.0
2014-Oct-20 17:32N 53°33' E 008°10'0 0.0
2014-Oct-20 16:32N 53°33' E 008°10'0 0.0
2014-Oct-20 15:29N 53°33' E 008°10'0 0.0
2014-Oct-20 14:29N 53°33' E 008°10'1 1.2
2014-Oct-20 13:34N 53°35' E 008°10'7 7.2
2014-Oct-20 12:34N 53°41' E 008°05'8 8.2
2014-Oct-20 11:34N 53°48' E 007°59'9 8.9
2014-Oct-20 10:33N 53°53' E 007°45'9 8.8
2014-Oct-20 09:34N 53°59' E 007°36'6 5.9
2014-Oct-20 08:33N 54°05' E 007°31'6 6.2
2014-Oct-20 07:33N 54°10' E 007°27'1211.9
2014-Oct-20 06:33N 54°21' E 007°19'1313.1
2014-Oct-20 05:34N 54°32' E 007°06'1413.2
2014-Oct-20 04:31N 54°43' E 006°53'1212.7
2014-Oct-20 03:33N 54°54' E 006°42'1312.6
2014-Oct-20 02:33N 55°06' E 006°35'1312.6
2014-Oct-20 01:32N 55°18' E 006°27'1312.6
2014-Oct-20 00:32N 55°30' E 006°19'  
Track history (hours):
 
Tides and Currents Weather Stations Pressure Air Temp Water Temp Dewpoint Dewpoint Depression Visibility Wind Speed Wind Dir Waves Ship Positions

Peary Spirit

Last reported at 2014-Oct-22 22:33 UTC. Time now 2014-Oct-24 08:41 UTC.
Position N 55°13' E 006°30'.

Length 249 m; draft 9.5 m.

Type: Tanker. MMSI: 311027600.

Date/timePositionNaut miles runAvg speedWind from/ knotsBaromVisibWave heightAir tempDewpointWater temp
2014-Oct-22 22:33N 55°13' E 006°30'1111.2
2014-Oct-22 21:33N 55°03' E 006°37'1110.6
2014-Oct-22 20:33N 54°53' E 006°45'1010.1
2014-Oct-22 19:33N 54°45' E 006°54'1010.0
2014-Oct-22 18:33N 54°36' E 007°03'9 8.8
2014-Oct-22 17:33N 54°29' E 007°10'8 8.4
2014-Oct-22 16:33N 54°22' E 007°18'9 8.6
2014-Oct-22 15:33N 54°14' E 007°25'7 7.3
2014-Oct-22 14:33N 54°07' E 007°25'2 1.7
2014-Oct-22 13:33N 54°05' E 007°24'0 0.1
2014-Oct-22 12:33N 54°05' E 007°25'0 0.4
2014-Oct-22 11:33N 54°05' E 007°25'1 0.5
2014-Oct-22 10:33N 54°06' E 007°26'0 0.4
2014-Oct-22 09:33N 54°06' E 007°26'0 0.3
2014-Oct-22 08:33N 54°06' E 007°27'0 0.2
2014-Oct-22 07:33N 54°06' E 007°27'8 0.5
2014-Oct-21 15:33N 54°01' E 007°38'1212.0
2014-Oct-21 14:33N 53°51' E 007°50'1413.6
2014-Oct-21 13:33N 53°41' E 008°05'8 7.9
2014-Oct-21 12:32N 53°33' E 008°10'0 0.0
2014-Oct-21 11:32N 53°33' E 008°10'0 0.0
2014-Oct-21 10:32N 53°33' E 008°10'0 0.0
2014-Oct-21 09:32N 53°33' E 008°10'0 0.0
2014-Oct-21 08:32N 53°33' E 008°10'0 0.0
2014-Oct-21 07:32N 53°33' E 008°10'0 0.0
2014-Oct-21 06:32N 53°33' E 008°10'0 0.0
2014-Oct-21 05:32N 53°33' E 008°10'0 0.0
2014-Oct-21 04:32N 53°33' E 008°10'0 0.0
2014-Oct-21 03:32N 53°33' E 008°10'0 0.0
2014-Oct-21 02:32N 53°33' E 008°10'0 0.0
2014-Oct-21 01:32N 53°33' E 008°10'0 0.0
2014-Oct-21 00:32N 53°33' E 008°10'0 0.0
2014-Oct-20 23:32N 53°33' E 008°10'0 0.0
2014-Oct-20 22:29N 53°33' E 008°10'0 0.0
2014-Oct-20 21:32N 53°33' E 008°10'0 0.0
2014-Oct-20 20:32N 53°33' E 008°10'0 0.0
2014-Oct-20 19:32N 53°33' E 008°10'0 0.0
2014-Oct-20 18:32N 53°33' E 008°10'0 0.0
2014-Oct-20 17:32N 53°33' E 008°10'0 0.0
2014-Oct-20 16:32N 53°33' E 008°10'0 0.0
2014-Oct-20 15:29N 53°33' E 008°10'0 0.0
2014-Oct-20 14:29N 53°33' E 008°10'1 1.2
2014-Oct-20 13:34N 53°35' E 008°10'7 7.2
2014-Oct-20 12:34N 53°41' E 008°05'8 8.2
2014-Oct-20 11:34N 53°48' E 007°59'9 8.9
2014-Oct-20 10:33N 53°53' E 007°45'9 8.8
2014-Oct-20 09:34N 53°59' E 007°36'6 5.9
2014-Oct-20 08:33N 54°05' E 007°31'6 6.2
2014-Oct-20 07:33N 54°10' E 007°27'1211.9
2014-Oct-20 06:33N 54°21' E 007°19'1313.1
2014-Oct-20 05:34N 54°32' E 007°06'1413.2
2014-Oct-20 04:31N 54°43' E 006°53'1212.7
2014-Oct-20 03:33N 54°54' E 006°42'1312.6
2014-Oct-20 02:33N 55°06' E 006°35'1312.6
2014-Oct-20 01:32N 55°18' E 006°27'1312.6
2014-Oct-20 00:32N 55°30' E 006°19'  

Dump ship's entire track history